Time;durP1;ratioP1;P1;durP2;ratioP2;P2;SDS_P1;SDS_P2;PMS_P1;PMS_P2;Temp;Humidity;BMP_temperature;BMP_pressure;BME280_temperature;BME280_humidity;BME280_pressure;Samples;Min_cycle;Max_cycle;Signal;HPM_P1;HPM_P2
2024/02/20 00:02:16;;;;;;;7.70;2.20;;;7.20;99.90;;;;;;5065611;28;20189;-72
2024/02/20 00:04:42;;;;;;;11.27;2.20;;;7.20;99.90;;;;;;5074090;28;20174;-72
2024/02/20 00:07:08;;;;;;;9.60;3.10;;;7.30;99.90;;;;;;5074157;28;20560;-72
2024/02/20 00:09:33;;;;;;;11.63;2.90;;;7.20;99.90;;;;;;5074247;28;20634;-72
2024/02/20 00:12:00;;;;;;;9.13;2.60;;;7.20;99.90;;;;;;5073739;28;20177;-72
2024/02/20 00:14:26;;;;;;;9.47;1.97;;;7.20;99.90;;;;;;5074144;28;20253;-72
2024/02/20 00:16:52;;;;;;;6.20;2.17;;;7.20;99.90;;;;;;5073899;28;20553;-72
2024/02/20 00:19:18;;;;;;;11.23;2.40;;;7.30;99.90;;;;;;5074000;28;20436;-72
2024/02/20 00:21:45;;;;;;;6.97;2.40;;;7.20;99.90;;;;;;5073983;28;20170;-72
2024/02/20 00:24:11;;;;;;;8.63;2.10;;;7.20;99.90;;;;;;5073979;28;20401;-72
2024/02/20 00:26:36;;;;;;;10.70;3.27;;;7.20;99.90;;;;;;5074258;28;20430;-72
2024/02/20 00:29:02;;;;;;;13.10;1.77;;;7.20;99.90;;;;;;5073967;28;20253;-72
2024/02/20 00:31:28;;;;;;;10.10;2.90;;;7.20;99.90;;;;;;5073320;28;20796;-72
2024/02/20 00:33:54;;;;;;;14.73;3.40;;;7.20;99.90;;;;;;5073834;28;20169;-72
2024/02/20 00:36:20;;;;;;;15.73;3.00;;;7.10;99.90;;;;;;5073691;28;20452;-72
2024/02/20 00:38:45;;;;;;;6.27;3.10;;;7.10;99.90;;;;;;5073742;28;20450;-72
2024/02/20 00:41:11;;;;;;;9.80;2.60;;;7.20;99.90;;;;;;5073302;28;20171;-72
2024/02/20 00:43:36;;;;;;;8.40;2.00;;;7.10;99.90;;;;;;5073432;28;20200;-72
2024/02/20 00:46:03;;;;;;;13.90;2.27;;;7.10;99.90;;;;;;5073462;28;20188;-72
2024/02/20 00:48:29;;;;;;;8.47;2.50;;;7.10;99.90;;;;;;5073552;28;20146;-72
2024/02/20 00:50:55;;;;;;;10.90;1.90;;;7.10;99.90;;;;;;5073227;28;20431;-72
2024/02/20 00:53:21;;;;;;;6.30;1.90;;;7.10;99.90;;;;;;5073354;28;20444;-72
2024/02/20 00:55:46;;;;;;;3.53;2.13;;;7.10;99.90;;;;;;5073313;28;20184;-72
2024/02/20 00:58:12;;;;;;;8.57;2.60;;;7.00;99.90;;;;;;5073251;28;20194;-72
2024/02/20 01:00:38;;;;;;;9.10;2.13;;;7.00;99.90;;;;;;5068352;28;20565;-72
2024/02/20 01:03:04;;;;;;;9.00;2.47;;;7.00;99.90;;;;;;5067512;28;20419;-72
2024/02/20 01:05:30;;;;;;;5.83;1.90;;;7.00;99.90;;;;;;5072792;28;20903;-72
2024/02/20 01:07:57;;;;;;;9.43;2.33;;;7.00;99.90;;;;;;5072849;28;20225;-72
2024/02/20 01:10:22;;;;;;;14.40;3.80;;;7.00;99.90;;;;;;5072865;28;20185;-72
2024/02/20 01:12:48;;;;;;;7.93;2.90;;;6.90;99.90;;;;;;5072721;28;20420;-72
2024/02/20 01:15:13;;;;;;;11.03;2.57;;;6.90;99.90;;;;;;5073009;28;20182;-72
2024/02/20 01:17:39;;;;;;;10.47;3.17;;;6.90;99.90;;;;;;5072819;28;20202;-72
2024/02/20 01:20:06;;;;;;;6.10;2.73;;;6.90;99.90;;;;;;5072619;28;20166;-72
2024/02/20 01:22:32;;;;;;;13.93;2.67;;;6.90;99.90;;;;;;5072823;28;20790;-72
2024/02/20 01:24:57;;;;;;;18.80;3.03;;;6.90;99.90;;;;;;5072625;28;20400;-72
2024/02/20 01:27:23;;;;;;;7.80;3.83;;;6.90;99.90;;;;;;5072669;28;20190;-71
2024/02/20 01:29:49;;;;;;;6.80;3.00;;;6.90;99.90;;;;;;5072510;28;20196;-72
2024/02/20 01:32:14;;;;;;;3.97;2.33;;;6.90;99.90;;;;;;5072462;28;20652;-72
2024/02/20 01:34:40;;;;;;;7.60;3.10;;;6.90;99.90;;;;;;5072713;28;20197;-72
2024/02/20 01:37:05;;;;;;;10.13;2.77;;;6.90;99.90;;;;;;5072311;28;20284;-72
2024/02/20 01:39:31;;;;;;;7.07;3.17;;;6.90;99.90;;;;;;5070786;28;20193;-72
2024/02/20 01:41:57;;;;;;;20.93;3.73;;;6.90;99.90;;;;;;5070696;28;20686;-72
2024/02/20 01:44:33;;;;;;;14.37;3.43;;;6.90;99.90;;;;;;5072294;28;20500;-71
2024/02/20 01:47:00;;;;;;;16.13;3.47;;;6.90;99.90;;;;;;5072392;28;20264;-72
2024/02/20 01:49:27;;;;;;;5.90;2.93;;;7.00;99.90;;;;;;5072042;28;20416;-72
2024/02/20 01:51:54;;;;;;;8.07;3.50;;;7.00;99.90;;;;;;5071908;28;20907;-73
2024/02/20 01:54:21;;;;;;;6.00;2.60;;;7.10;99.90;;;;;;5072261;28;20412;-72
2024/02/20 01:56:48;;;;;;;10.57;4.17;;;7.10;99.90;;;;;;5071898;28;20456;-72
2024/02/20 01:59:15;;;;;;;10.47;5.17;;;7.20;99.90;;;;;;5072425;28;20512;-73
2024/02/20 02:01:41;;;;;;;8.63;4.00;;;7.30;99.90;;;;;;5063644;28;20474;-72
2024/02/20 02:04:07;;;;;;;8.33;4.03;;;7.40;99.90;;;;;;5071863;28;20412;-72
2024/02/20 02:06:37;;;;;;;12.73;4.37;;;7.50;99.90;;;;;;5071927;28;20190;-72
2024/02/20 02:09:04;;;;;;;18.10;4.40;;;7.50;99.90;;;;;;5072006;28;20404;-72
2024/02/20 02:11:29;;;;;;;11.73;3.53;;;7.60;99.90;;;;;;5071670;28;20821;-72
2024/02/20 02:13:55;;;;;;;13.43;3.50;;;7.60;99.90;;;;;;5072027;28;20404;-72
2024/02/20 02:16:20;;;;;;;9.60;3.10;;;7.60;99.90;;;;;;5071837;28;20198;-72
2024/02/20 02:18:46;;;;;;;10.30;3.87;;;7.60;99.90;;;;;;5072046;28;20166;-72
2024/02/20 02:21:12;;;;;;;10.00;4.47;;;7.60;99.90;;;;;;5071702;28;20518;-72
2024/02/20 02:23:37;;;;;;;15.97;5.13;;;7.60;99.90;;;;;;5071973;28;20162;-72
2024/02/20 02:26:09;;;;;;;11.20;4.43;;;7.60;99.90;;;;;;5070439;28;20427;-72
2024/02/20 02:28:34;;;;;;;9.70;4.80;;;7.60;99.90;;;;;;5070571;28;20245;-72
2024/02/20 02:31:00;;;;;;;9.00;4.07;;;7.60;99.90;;;;;;5071514;28;20950;-72
2024/02/20 02:33:25;;;;;;;7.40;4.20;;;7.50;99.90;;;;;;5071587;28;20203;-72
2024/02/20 02:35:51;;;;;;;14.40;5.30;;;7.50;99.90;;;;;;5071407;28;20162;-72
2024/02/20 02:38:16;;;;;;;14.53;5.63;;;7.50;99.90;;;;;;5071410;28;20681;-72
2024/02/20 02:40:42;;;;;;;11.23;4.70;;;7.50;99.90;;;;;;5071437;28;20169;-72
2024/02/20 02:43:07;;;;;;;9.13;5.40;;;7.50;99.90;;;;;;5071637;28;20165;-72
2024/02/20 02:45:33;;;;;;;11.50;5.93;;;7.50;99.90;;;;;;5071707;28;20194;-72
2024/02/20 02:47:59;;;;;;;13.13;5.10;;;7.50;99.90;;;;;;5071609;28;20269;-72
2024/02/20 02:50:25;;;;;;;11.47;4.53;;;7.40;99.90;;;;;;5071450;28;20162;-72
2024/02/20 02:52:51;;;;;;;7.90;4.60;;;7.40;99.90;;;;;;5070222;28;20462;-72
2024/02/20 02:55:16;;;;;;;25.17;7.10;;;7.40;99.90;;;;;;5071304;28;20245;-72
2024/02/20 02:57:42;;;;;;;17.50;4.80;;;7.30;99.90;;;;;;5071181;28;20198;-72
2024/02/20 03:00:11;;;;;;;6.73;4.43;;;7.30;99.90;;;;;;5070366;28;20174;-72
2024/02/20 03:02:37;;;;;;;9.23;4.30;;;7.30;99.90;;;;;;5064121;28;20181;-72
2024/02/20 03:05:03;;;;;;;9.50;4.93;;;7.20;99.90;;;;;;5071308;28;20483;-72
2024/02/20 03:07:29;;;;;;;13.17;4.90;;;7.20;99.90;;;;;;5071435;28;20416;-72
2024/02/20 03:09:55;;;;;;;5.87;3.80;;;7.20;99.90;;;;;;5071276;28;20403;-72
2024/02/20 03:12:21;;;;;;;10.33;5.17;;;7.20;99.90;;;;;;5071239;28;20167;-72
2024/02/20 03:14:48;;;;;;;10.70;5.03;;;7.20;99.90;;;;;;5071516;28;20407;-72
2024/02/20 03:17:13;;;;;;;10.93;5.37;;;7.20;99.90;;;;;;5071263;28;20275;-72
2024/02/20 03:19:39;;;;;;;7.93;4.90;;;7.20;99.90;;;;;;5071361;28;20408;-72
2024/02/20 03:22:05;;;;;;;18.17;5.67;;;7.20;99.90;;;;;;5071179;28;20167;-72
2024/02/20 03:24:30;;;;;;;13.93;4.47;;;7.20;99.90;;;;;;5073714;28;20162;-73
2024/02/20 03:26:56;;;;;;;14.43;4.57;;;7.10;99.90;;;;;;5074990;28;20186;-72
2024/02/20 03:29:22;;;;;;;14.80;5.40;;;7.20;99.90;;;;;;5075056;28;20578;-72
2024/02/20 03:31:48;;;;;;;23.63;7.20;;;7.20;99.90;;;;;;5073406;28;20170;-72
2024/02/20 03:34:14;;;;;;;15.53;6.17;;;7.20;99.90;;;;;;5074830;28;20413;-72
2024/02/20 03:36:39;;;;;;;10.50;5.70;;;7.20;99.90;;;;;;5074705;28;20458;-72
2024/02/20 03:39:05;;;;;;;10.27;5.70;;;7.30;99.90;;;;;;5072955;28;20220;-72
2024/02/20 03:41:30;;;;;;;17.90;6.70;;;7.30;99.90;;;;;;5074619;28;20819;-72
2024/02/20 03:43:56;;;;;;;16.93;5.27;;;7.30;99.90;;;;;;5074641;28;20634;-72
2024/02/20 03:46:21;;;;;;;19.20;5.43;;;7.30;99.90;;;;;;5074656;28;20586;-72
2024/02/20 03:48:47;;;;;;;15.20;6.00;;;7.30;99.90;;;;;;5074560;28;20697;-72
2024/02/20 03:51:12;;;;;;;20.90;5.83;;;7.30;99.90;;;;;;5074274;28;20166;-72
2024/02/20 03:53:38;;;;;;;12.07;5.23;;;7.40;99.90;;;;;;5074571;28;20246;-72
2024/02/20 03:56:04;;;;;;;10.70;6.17;;;7.40;99.90;;;;;;5074410;28;20698;-72
2024/02/20 03:58:29;;;;;;;12.27;6.77;;;7.40;99.90;;;;;;5074444;28;20159;-73
2024/02/20 04:00:55;;;;;;;10.30;6.00;;;7.40;99.90;;;;;;5070074;28;20473;-73
2024/02/20 04:03:21;;;;;;;14.23;5.80;;;7.30;99.90;;;;;;5069830;28;20179;-72
2024/02/20 04:05:47;;;;;;;19.63;5.93;;;7.30;99.90;;;;;;5074098;28;20163;-73
2024/02/20 04:08:13;;;;;;;21.97;8.90;;;7.30;99.90;;;;;;5074577;28;20405;-72
2024/02/20 04:10:38;;;;;;;19.63;8.30;;;7.30;99.90;;;;;;5074080;28;20770;-72
2024/02/20 04:13:04;;;;;;;21.07;6.50;;;7.30;99.90;;;;;;5074202;28;20166;-72
2024/02/20 04:15:29;;;;;;;14.43;5.80;;;7.30;99.90;;;;;;5074156;28;20684;-72
2024/02/20 04:17:55;;;;;;;25.90;7.30;;;7.30;99.90;;;;;;5073863;28;20198;-72
2024/02/20 04:20:20;;;;;;;12.70;5.20;;;7.30;99.90;;;;;;5073800;28;20166;-72
2024/02/20 04:22:46;;;;;;;11.87;6.57;;;7.30;99.90;;;;;;5074068;28;20541;-73
2024/02/20 04:25:12;;;;;;;12.83;6.03;;;7.20;99.90;;;;;;5074128;28;20174;-73
2024/02/20 04:27:40;;;;;;;17.57;7.43;;;7.20;99.90;;;;;;5073752;28;20186;-72
2024/02/20 04:30:09;;;;;;;19.77;7.90;;;7.20;99.90;;;;;;5072255;28;20174;-73
2024/02/20 04:32:34;;;;;;;10.83;5.90;;;7.20;99.90;;;;;;5073748;28;20967;-73
2024/02/20 04:35:00;;;;;;;19.87;7.47;;;7.20;99.90;;;;;;5072486;28;20432;-72
2024/02/20 04:37:25;;;;;;;18.50;6.80;;;7.20;99.90;;;;;;5073528;28;20221;-73
2024/02/20 04:39:51;;;;;;;14.77;5.70;;;7.20;99.90;;;;;;5073654;28;20166;-72
2024/02/20 04:42:21;;;;;;;14.50;5.90;;;7.20;99.90;;;;;;5073297;28;20169;-73
2024/02/20 04:44:48;;;;;;;16.27;6.10;;;7.30;99.90;;;;;;5073624;28;20182;-73
2024/02/20 04:47:13;;;;;;;14.37;6.17;;;7.20;99.90;;;;;;5073419;28;20421;-72
2024/02/20 04:49:39;;;;;;;8.60;5.00;;;7.20;99.90;;;;;;5073488;28;20396;-73
2024/02/20 04:52:04;;;;;;;18.23;7.37;;;7.20;99.90;;;;;;5072976;28;20672;-73
2024/02/20 04:54:30;;;;;;;12.37;6.47;;;7.20;99.90;;;;;;5073383;28;20170;-73
2024/02/20 04:56:55;;;;;;;16.50;8.33;;;7.20;99.90;;;;;;5073169;28;20209;-72
2024/02/20 04:59:22;;;;;;;25.20;7.97;;;7.20;99.90;;;;;;5073315;28;20170;-73
2024/02/20 05:01:48;;;;;;;17.13;6.90;;;7.20;99.90;;;;;;5065394;28;20190;-73
2024/02/20 05:04:14;;;;;;;31.30;8.03;;;7.20;99.90;;;;;;5072924;28;20412;-72
2024/02/20 05:06:39;;;;;;;15.23;7.27;;;7.20;99.90;;;;;;5072646;28;20433;-72
2024/02/20 05:09:05;;;;;;;13.37;5.40;;;7.20;99.90;;;;;;5073029;28;20178;-73
2024/02/20 05:11:31;;;;;;;16.93;6.83;;;7.10;99.90;;;;;;5073014;28;20208;-73
2024/02/20 05:13:56;;;;;;;16.83;6.30;;;7.10;99.90;;;;;;5072728;28;20466;-72
2024/02/20 05:16:22;;;;;;;17.60;7.43;;;7.10;99.90;;;;;;5072708;28;20256;-72
2024/02/20 05:18:48;;;;;;;19.20;7.57;;;7.10;99.90;;;;;;5072723;28;20162;-73
2024/02/20 05:21:13;;;;;;;19.47;6.87;;;7.00;99.90;;;;;;5071281;28;20456;-72
2024/02/20 05:23:38;;;;;;;20.23;7.33;;;7.00;99.90;;;;;;5072771;28;20215;-72
2024/02/20 05:26:04;;;;;;;13.70;6.43;;;7.00;99.90;;;;;;5072607;28;20203;-72
2024/02/20 05:28:29;;;;;;;13.20;6.97;;;6.90;99.90;;;;;;5072784;28;20179;-72
2024/02/20 05:30:56;;;;;;;22.40;7.57;;;6.90;99.90;;;;;;5072506;28;20211;-71
2024/02/20 05:33:22;;;;;;;17.03;7.67;;;6.90;99.90;;;;;;5072640;28;20720;-72
2024/02/20 05:35:48;;;;;;;19.70;7.17;;;6.90;99.90;;;;;;5072615;28;20922;-72
2024/02/20 05:38:14;;;;;;;17.93;7.93;;;6.90;99.90;;;;;;5072467;28;20539;-72
2024/02/20 05:40:39;;;;;;;11.17;5.60;;;6.90;99.90;;;;;;5072315;28;20570;-72
2024/02/20 05:43:05;;;;;;;23.07;7.50;;;6.90;99.90;;;;;;5072534;28;20163;-72
2024/02/20 05:45:33;;;;;;;22.33;6.93;;;6.90;99.90;;;;;;5072160;28;20200;-72
2024/02/20 05:47:59;;;;;;;27.57;6.63;;;6.90;99.90;;;;;;5072353;28;20364;-72
2024/02/20 05:50:24;;;;;;;10.43;6.40;;;6.90;99.90;;;;;;5072128;28;20439;-72
2024/02/20 05:52:50;;;;;;;14.73;5.60;;;6.80;99.90;;;;;;5072219;28;20511;-72
2024/02/20 05:55:15;;;;;;;9.10;5.33;;;6.80;99.90;;;;;;5072298;28;20198;-72
2024/02/20 05:57:41;;;;;;;19.93;7.63;;;6.90;99.90;;;;;;5072207;28;20212;-72
2024/02/20 06:00:07;;;;;;;23.23;8.13;;;6.90;99.90;;;;;;5072084;28;20193;-72
2024/02/20 06:02:33;;;;;;;24.07;9.50;;;6.90;99.90;;;;;;5072135;28;20158;-72
2024/02/20 06:04:59;;;;;;;14.77;6.13;;;6.90;99.90;;;;;;5072168;28;20491;-72
2024/02/20 06:07:24;;;;;;;14.17;7.37;;;7.00;99.90;;;;;;5072138;28;20265;-72
2024/02/20 06:09:50;;;;;;;20.33;7.47;;;7.00;99.90;;;;;;5072130;28;20175;-72
2024/02/20 06:12:16;;;;;;;9.60;5.93;;;7.00;99.90;;;;;;5071830;28;20170;-72
2024/02/20 06:14:44;;;;;;;13.80;5.97;;;7.00;99.90;;;;;;5072018;28;20601;-72
2024/02/20 06:17:10;;;;;;;18.23;6.40;;;7.00;99.90;;;;;;5071803;28;20194;-72
2024/02/20 06:19:36;;;;;;;16.60;5.93;;;6.90;99.90;;;;;;5072049;28;20974;-72
2024/02/20 06:22:01;;;;;;;13.07;5.83;;;6.90;99.90;;;;;;5071651;28;20424;-72
2024/02/20 06:24:27;;;;;;;18.90;5.67;;;6.90;99.90;;;;;;5071772;28;20246;-72
2024/02/20 06:26:52;;;;;;;14.90;5.93;;;6.90;99.90;;;;;;5071645;28;20261;-72
2024/02/20 06:29:18;;;;;;;15.20;4.47;;;6.90;99.90;;;;;;5071880;28;20166;-72
2024/02/20 06:31:43;;;;;;;10.50;5.73;;;7.00;99.90;;;;;;5071937;28;20178;-72
2024/02/20 06:34:09;;;;;;;15.23;7.87;;;6.90;99.90;;;;;;5071749;28;20219;-72
2024/02/20 06:36:35;;;;;;;16.00;5.70;;;6.90;99.90;;;;;;5071557;28;20279;-72
2024/02/20 06:39:02;;;;;;;12.10;6.60;;;6.90;99.90;;;;;;5071714;28;20450;-72
2024/02/20 06:41:28;;;;;;;10.17;4.47;;;7.00;99.90;;;;;;5071390;28;20780;-71
2024/02/20 06:43:53;;;;;;;18.53;6.77;;;7.00;99.90;;;;;;5071677;28;20401;-71
2024/02/20 06:46:19;;;;;;;13.10;5.37;;;7.00;99.90;;;;;;5071935;28;20199;-71
2024/02/20 06:48:46;;;;;;;20.80;5.70;;;7.10;99.90;;;;;;5071482;28;20188;-72
2024/02/20 06:51:12;;;;;;;11.97;6.27;;;7.20;99.90;;;;;;5071258;28;20185;-71
2024/02/20 06:53:38;;;;;;;10.80;5.27;;;7.10;99.90;;;;;;5071484;28;20416;-71
2024/02/20 06:56:03;;;;;;;15.10;7.07;;;7.20;99.90;;;;;;5070388;28;20192;-71
2024/02/20 06:58:29;;;;;;;24.57;6.83;;;7.30;99.90;;;;;;5074159;28;20162;-71
2024/02/20 07:00:55;;;;;;;12.97;5.47;;;7.40;99.90;;;;;;5075820;28;20450;-71
2024/02/20 07:03:20;;;;;;;27.87;8.03;;;7.40;99.90;;;;;;5075414;28;20159;-71
2024/02/20 07:05:46;;;;;;;17.50;5.97;;;7.40;99.90;;;;;;5075448;28;20185;-72
2024/02/20 07:08:12;;;;;;;22.43;7.40;;;7.50;99.90;;;;;;5075455;28;20198;-72
2024/02/20 07:10:38;;;;;;;15.93;7.67;;;7.40;99.90;;;;;;5075223;28;20241;-71
2024/02/20 07:13:04;;;;;;;23.13;6.80;;;7.40;99.90;;;;;;5075195;28;20240;-72
2024/02/20 07:15:29;;;;;;;19.73;6.77;;;7.50;99.90;;;;;;5075231;28;20170;-71
2024/02/20 07:17:55;;;;;;;17.60;6.93;;;7.60;99.90;;;;;;5074943;28;20452;-71
2024/02/20 07:20:22;;;;;;;12.07;6.23;;;7.70;99.90;;;;;;5074921;28;20978;-72
2024/02/20 07:22:48;;;;;;;20.33;7.70;;;7.80;99.90;;;;;;5075065;28;20162;-72
2024/02/20 07:25:13;;;;;;;13.70;7.13;;;7.80;99.90;;;;;;5075012;28;20772;-72
2024/02/20 07:27:39;;;;;;;19.33;8.13;;;7.90;99.90;;;;;;5074870;28;20430;-71
2024/02/20 07:30:05;;;;;;;15.17;6.50;;;7.90;99.90;;;;;;5074781;28;20166;-71
2024/02/20 07:32:31;;;;;;;15.10;6.70;;;8.00;99.90;;;;;;5074656;28;20213;-71
2024/02/20 07:34:56;;;;;;;15.07;6.43;;;8.00;99.90;;;;;;5074869;28;20907;-72
2024/02/20 07:37:22;;;;;;;17.23;6.40;;;8.10;99.90;;;;;;5074593;28;20205;-71
2024/02/20 07:39:47;;;;;;;18.10;7.20;;;8.20;99.90;;;;;;5074992;28;20215;-71
2024/02/20 07:42:14;;;;;;;10.63;8.20;;;8.20;99.90;;;;;;5074486;28;20536;-71
2024/02/20 07:44:39;;;;;;;21.37;6.60;;;8.30;99.90;;;;;;5074774;28;20163;-72
2024/02/20 07:47:05;;;;;;;19.33;7.23;;;8.30;99.90;;;;;;5074489;28;20424;-71
2024/02/20 07:49:30;;;;;;;17.13;7.13;;;8.40;99.90;;;;;;5074604;28;20179;-71
2024/02/20 07:51:56;;;;;;;19.23;8.63;;;8.40;99.90;;;;;;5072892;28;20196;-67
2024/02/20 07:54:22;;;;;;;18.10;7.43;;;8.50;99.90;;;;;;5074247;28;20699;-67
2024/02/20 07:56:47;;;;;;;13.83;7.07;;;8.60;99.90;;;;;;5073741;28;20202;-67
2024/02/20 07:59:14;;;;;;;22.33;7.87;;;8.60;99.90;;;;;;5074405;28;20215;-67
2024/02/20 08:01:48;;;;;;;22.30;7.47;;;8.60;99.90;;;;;;5074068;28;20166;-66
2024/02/20 08:04:14;;;;;;;16.33;7.73;;;8.60;99.90;;;;;;5074402;28;20907;-66
2024/02/20 08:06:39;;;;;;;17.20;6.43;;;8.70;99.90;;;;;;5074115;28;20424;-66
2024/02/20 08:09:06;;;;;;;10.00;7.80;;;8.90;99.90;;;;;;5073960;28;20197;-67
2024/02/20 08:11:34;;;;;;;25.13;8.10;;;9.00;99.90;;;;;;5073853;28;20163;-67
2024/02/20 08:13:59;;;;;;;17.77;8.10;;;9.20;99.90;;;;;;5074028;28;20458;-67
2024/02/20 08:16:25;;;;;;;19.23;8.73;;;9.30;99.90;;;;;;5073984;28;20452;-67
2024/02/20 08:18:50;;;;;;;13.17;7.37;;;9.40;99.90;;;;;;5074098;28;20193;-67
2024/02/20 08:21:16;;;;;;;11.07;8.20;;;9.40;99.90;;;;;;5073761;28;20167;-67
2024/02/20 08:23:42;;;;;;;14.87;7.50;;;9.40;99.90;;;;;;5073922;28;20166;-66
2024/02/20 08:26:08;;;;;;;14.90;7.57;;;9.50;99.90;;;;;;5073882;28;20240;-67
2024/02/20 08:28:33;;;;;;;20.23;9.13;;;9.60;99.90;;;;;;5073874;28;20392;-67
2024/02/20 08:30:59;;;;;;;23.63;8.20;;;9.50;99.90;;;;;;5073656;28;20170;-67
2024/02/20 08:33:25;;;;;;;15.97;7.80;;;9.60;99.90;;;;;;5073833;28;20158;-67
2024/02/20 08:35:52;;;;;;;13.20;6.27;;;9.70;99.90;;;;;;5073485;28;20202;-67
2024/02/20 08:38:17;;;;;;;11.03;6.27;;;9.80;99.90;;;;;;5073642;28;20194;-67
2024/02/20 08:40:43;;;;;;;19.90;8.10;;;9.90;99.90;;;;;;5073267;28;20883;-67
2024/02/20 08:43:08;;;;;;;26.60;8.83;;;10.20;99.90;;;;;;5073079;28;20163;-67
2024/02/20 08:45:34;;;;;;;12.60;6.80;;;10.40;99.90;;;;;;5073565;28;20518;-67
2024/02/20 08:48:01;;;;;;;17.20;8.30;;;10.60;99.90;;;;;;5073488;28;20197;-67
2024/02/20 08:50:29;;;;;;;24.57;9.43;;;10.80;99.90;;;;;;5073294;28;20393;-67
2024/02/20 08:52:55;;;;;;;19.33;7.67;;;11.10;99.90;;;;;;5073265;28;20432;-68
2024/02/20 08:55:20;;;;;;;22.77;7.77;;;11.20;99.90;;;;;;5073407;28;20749;-68
2024/02/20 08:57:46;;;;;;;12.33;6.00;;;11.60;99.90;;;;;;5073171;28;20201;-67
2024/02/20 09:00:12;;;;;;;15.33;8.30;;;11.90;99.90;;;;;;5073104;28;20163;-67
2024/02/20 09:02:42;;;;;;;21.57;7.07;;;12.40;99.90;;;;;;5073139;28;20245;-67
2024/02/20 09:05:11;;;;;;;18.00;7.73;;;12.90;99.90;;;;;;5073195;28;20458;-67
2024/02/20 09:07:38;;;;;;;9.30;6.37;;;13.20;99.90;;;;;;5073100;28;20421;-67
2024/02/20 09:10:04;;;;;;;15.20;7.63;;;13.30;99.90;;;;;;5072802;28;20432;-67
2024/02/20 09:12:30;;;;;;;17.20;7.90;;;13.40;99.90;;;;;;5072992;28;21100;-67
2024/02/20 09:14:56;;;;;;;15.07;7.13;;;13.50;99.90;;;;;;5073016;28;20476;-68
2024/02/20 09:17:22;;;;;;;15.63;7.80;;;13.60;99.90;;;;;;5072778;28;20198;-67
2024/02/20 09:19:48;;;;;;;20.30;8.20;;;13.50;99.90;;;;;;5072366;28;20790;-68
2024/02/20 09:22:14;;;;;;;22.40;8.63;;;13.40;99.90;;;;;;5072450;28;20396;-67
2024/02/20 09:24:40;;;;;;;18.83;7.10;;;13.50;99.90;;;;;;5072916;28;20218;-68
2024/02/20 09:27:06;;;;;;;10.90;7.07;;;13.20;99.90;;;;;;5072817;28;20939;-68
2024/02/20 09:29:31;;;;;;;15.67;7.00;;;13.00;99.90;;;;;;5072676;28;20178;-68
2024/02/20 09:32:00;;;;;;;16.90;8.00;;;12.90;99.90;;;;;;5072542;28;20216;-68
2024/02/20 09:34:28;;;;;;;14.43;7.03;;;12.80;99.90;;;;;;5072740;28;20201;-68
2024/02/20 09:36:54;;;;;;;15.43;7.33;;;12.90;99.90;;;;;;5072478;28;21084;-68
2024/02/20 09:39:24;;;;;;;16.13;6.47;;;12.90;99.90;;;;;;5072477;28;20499;-68
2024/02/20 09:41:51;;;;;;;23.53;7.70;;;12.80;99.90;;;;;;5072318;28;20400;-68
2024/02/20 09:44:17;;;;;;;18.03;7.60;;;12.40;99.90;;;;;;5072500;28;20400;-68
2024/02/20 09:46:47;;;;;;;15.53;7.10;;;12.30;99.90;;;;;;5072312;28;20420;-68
2024/02/20 09:49:14;;;;;;;19.67;7.00;;;12.10;99.90;;;;;;5072469;28;20808;-67
2024/02/20 09:51:42;;;;;;;14.20;6.80;;;12.20;99.90;;;;;;5072008;28;20423;-67
2024/02/20 09:54:08;;;;;;;22.03;6.23;;;12.00;99.90;;;;;;5072270;28;20578;-67
2024/02/20 09:56:36;;;;;;;14.23;6.27;;;12.10;99.90;;;;;;5072085;28;20483;-67
2024/02/20 09:59:03;;;;;;;16.40;5.33;;;12.20;99.90;;;;;;5072240;28;20397;-68
2024/02/20 10:01:31;;;;;;;21.33;6.67;;;12.40;99.90;;;;;;5071970;28;20483;-67
2024/02/20 10:03:58;;;;;;;14.60;6.53;;;12.50;99.90;;;;;;5072081;28;20401;-68
2024/02/20 10:06:24;;;;;;;13.53;6.40;;;12.50;99.90;;;;;;5071894;28;20427;-68
2024/02/20 10:08:54;;;;;;;10.97;6.07;;;12.60;99.90;;;;;;5071405;28;20757;-67
2024/02/20 10:11:23;;;;;;;18.27;6.47;;;12.80;99.90;;;;;;5071851;28;20887;-68
2024/02/20 10:13:51;;;;;;;13.53;6.80;;;13.00;99.90;;;;;;5071667;28;20411;-67
2024/02/20 10:16:20;;;;;;;16.70;6.97;;;13.00;99.90;;;;;;5071842;28;20424;-67
2024/02/20 10:19:02;;;;;;;15.20;6.70;;;12.90;99.90;;;;;;5071643;28;20886;-67
2024/02/20 10:21:28;;;;;;;13.80;5.97;;;12.90;99.90;;;;;;5071660;28;20428;-68
2024/02/20 10:24:05;;;;;;;15.10;7.10;;;12.80;99.90;;;;;;5071556;28;20491;-68
2024/02/20 10:26:35;;;;;;;12.90;6.53;;;12.70;99.90;;;;;;5071850;28;20427;-67
2024/02/20 10:29:04;;;;;;;18.33;6.03;;;12.60;99.90;;;;;;5071811;28;20470;-67
2024/02/20 10:31:31;;;;;;;13.23;6.70;;;12.60;99.90;;;;;;5071496;28;20442;-67
2024/02/20 10:33:57;;;;;;;13.07;6.00;;;12.70;99.90;;;;;;5071706;28;20404;-67
2024/02/20 10:36:25;;;;;;;13.10;6.10;;;12.70;99.90;;;;;;5071706;28;20424;-67
2024/02/20 10:38:52;;;;;;;16.47;7.40;;;12.70;99.90;;;;;;5071760;28;20926;-67
2024/02/20 10:41:19;;;;;;;9.13;6.07;;;12.60;99.90;;;;;;5071606;28;20405;-67
2024/02/20 10:43:48;;;;;;;13.27;6.50;;;12.50;99.90;;;;;;5071725;28;20412;-67
2024/02/20 10:46:15;;;;;;;19.20;7.30;;;12.30;99.90;;;;;;5071558;28;20428;-68
2024/02/20 10:48:46;;;;;;;15.50;7.00;;;12.20;99.90;;;;;;5071244;28;20412;-68
2024/02/20 10:51:13;;;;;;;15.20;8.30;;;11.90;99.90;;;;;;5063128;28;20424;-69
2024/02/20 10:53:39;;;;;;;16.57;6.80;;;11.90;99.90;;;;;;5055040;28;20422;-69
2024/02/20 10:56:08;;;;;;;10.63;6.20;;;12.10;99.90;;;;;;5057259;28;20445;-69
2024/02/20 10:58:40;;;;;;;18.43;6.60;;;12.30;99.90;;;;;;5055041;28;20466;-69
2024/02/20 11:01:09;;;;;;;20.93;7.00;;;12.50;99.90;;;;;;5057397;28;20832;-69
2024/02/20 11:03:37;;;;;;;15.60;7.40;;;12.70;99.90;;;;;;5056768;28;20830;-69
2024/02/20 11:06:03;;;;;;;19.10;6.27;;;12.70;99.90;;;;;;5070009;28;20408;-69
2024/02/20 11:08:28;;;;;;;8.37;5.90;;;12.90;99.90;;;;;;5071429;28;20396;-69
2024/02/20 11:10:54;;;;;;;13.43;5.67;;;13.20;99.90;;;;;;5071185;28;20414;-69
2024/02/20 11:13:28;;;;;;;15.60;6.43;;;13.40;99.90;;;;;;5071337;28;20166;-69
2024/02/20 11:15:54;;;;;;;26.27;6.63;;;13.50;99.90;;;;;;5071370;28;20170;-69
2024/02/20 11:18:24;;;;;;;17.63;7.03;;;13.60;99.90;;;;;;5071367;28;20458;-69
2024/02/20 11:21:00;;;;;;;11.07;5.70;;;13.60;99.90;;;;;;5071287;28;20400;-69
2024/02/20 11:23:30;;;;;;;17.17;5.93;;;13.70;99.90;;;;;;5071319;28;20462;-69
2024/02/20 11:26:06;;;;;;;12.90;6.30;;;13.80;99.90;;;;;;5071499;28;20423;-69
2024/02/20 11:28:36;;;;;;;12.17;6.10;;;14.10;99.90;;;;;;5071381;28;20392;-68
2024/02/20 11:31:03;;;;;;;13.23;4.90;;;14.30;99.90;;;;;;5071113;28;20799;-69
2024/02/20 11:33:31;;;;;;;9.37;4.77;;;14.40;99.90;;;;;;5071175;28;20782;-68
2024/02/20 11:35:57;;;;;;;13.63;5.23;;;14.50;99.90;;;;;;5071062;28;20878;-69
2024/02/20 11:38:23;;;;;;;11.63;5.37;;;14.40;99.90;;;;;;5071146;28;20455;-68
2024/02/20 11:40:48;;;;;;;11.40;4.87;;;14.30;99.90;;;;;;5070997;28;20469;-69
2024/02/20 11:43:17;;;;;;;5.87;3.23;;;13.80;99.90;;;;;;5071685;28;20170;-68
2024/02/20 11:45:42;;;;;;;13.90;4.50;;;13.90;99.90;;;;;;5074789;28;20250;-68
2024/02/20 11:48:10;;;;;;;11.40;4.70;;;13.80;99.90;;;;;;5074652;28;20469;-69
2024/02/20 11:50:40;;;;;;;12.23;5.20;;;13.90;99.90;;;;;;5074508;28;20241;-69
2024/02/20 11:53:11;;;;;;;7.03;3.80;;;14.10;99.90;;;;;;5074550;28;20459;-69
2024/02/20 11:55:40;;;;;;;14.83;3.73;;;14.10;99.90;;;;;;5074655;28;20412;-69
2024/02/20 11:58:06;;;;;;;12.87;4.53;;;14.20;99.90;;;;;;5074433;28;20495;-69
2024/02/20 12:00:36;;;;;;;14.47;3.67;;;13.70;99.90;;;;;;5074275;28;20775;-68
2024/02/20 12:03:03;;;;;;;11.77;3.60;;;13.90;99.90;;;;;;5074357;28;20418;-69
2024/02/20 12:05:37;;;;;;;10.80;4.53;;;14.20;99.90;;;;;;5074494;28;20393;-69
2024/02/20 12:08:14;;;;;;;7.13;4.03;;;14.40;99.90;;;;;;5074388;28;20790;-69
2024/02/20 12:10:43;;;;;;;14.87;4.80;;;14.90;99.90;;;;;;5074305;28;20415;-69
2024/02/20 12:13:22;;;;;;;14.23;4.33;;;15.20;99.90;;;;;;5074241;28;20417;-69
2024/02/20 12:15:49;;;;;;;7.23;3.57;;;15.30;99.90;;;;;;5074073;28;20756;-69
2024/02/20 12:18:32;;;;;;;9.70;3.87;;;15.60;99.90;;;;;;5074184;28;20456;-69
2024/02/20 12:21:11;;;;;;;10.70;4.00;;;15.50;99.90;;;;;;5073990;28;20495;-69
2024/02/20 12:23:37;;;;;;;5.83;2.77;;;15.50;99.90;;;;;;5070507;28;20423;-69
2024/02/20 12:26:07;;;;;;;9.93;3.67;;;15.60;99.90;;;;;;5061434;28;20421;-69
2024/02/20 12:28:34;;;;;;;9.20;4.20;;;15.50;99.90;;;;;;5058916;28;20506;-69
2024/02/20 12:30:59;;;;;;;9.67;3.83;;;15.40;99.90;;;;;;5061764;28;20421;-69
2024/02/20 12:33:26;;;;;;;8.27;4.70;;;15.10;99.90;;;;;;5072710;28;20485;-69
2024/02/20 12:35:54;;;;;;;7.53;3.37;;;15.40;99.90;;;;;;5073603;28;20236;-69
2024/02/20 12:38:19;;;;;;;7.87;3.50;;;15.70;99.90;;;;;;5073796;28;20459;-69
2024/02/20 12:40:45;;;;;;;10.27;3.27;;;16.10;99.90;;;;;;5073484;28;20405;-69
2024/02/20 12:43:10;;;;;;;8.93;2.83;;;16.50;99.90;;;;;;5073673;28;20171;-69